Time;durP1;ratioP1;P1;durP2;ratioP2;P2;SDS_P1;SDS_P2;PMS_P1;PMS_P2;Temp;Humidity;BMP_temperature;BMP_pressure;BME280_temperature;BME280_humidity;BME280_pressure;Samples;Min_cycle;Max_cycle;Signal;HPM_P1;HPM_P2
2022/09/14 00:01:19;;;;;;;4.73;2.60;;;;;;;14.84;61.30;96893.19;4914370;29;20226;-78
2022/09/14 00:03:55;;;;;;;3.43;3.13;;;;;;;14.74;61.27;96901.69;4912949;29;20215;-76
2022/09/14 00:06:23;;;;;;;5.30;3.10;;;;;;;14.59;62.05;96904.34;4914032;29;20312;-77
2022/09/14 00:08:52;;;;;;;4.10;2.50;;;;;;;14.54;62.34;96895.16;4913603;29;20687;-77
2022/09/14 00:11:21;;;;;;;2.97;2.67;;;;;;;14.66;61.68;96900.44;4913108;29;20189;-78
2022/09/14 00:13:49;;;;;;;3.00;2.77;;;;;;;14.88;61.92;96899.06;4914421;29;20675;-78
2022/09/14 00:16:24;;;;;;;4.23;2.80;;;;;;;15.12;61.03;96910.47;4912789;29;20288;-78
2022/09/14 00:18:53;;;;;;;3.50;3.03;;;;;;;15.13;61.05;96912.97;4914176;29;20200;-78
2022/09/14 00:21:20;;;;;;;3.87;2.80;;;;;;;15.13;60.33;96909.53;4913817;29;20219;-78
2022/09/14 00:23:47;;;;;;;3.70;2.70;;;;;;;15.00;60.44;96906.06;4914171;29;20198;-77
2022/09/14 00:26:17;;;;;;;4.03;3.00;;;;;;;15.07;59.88;96913.38;4913721;29;20282;-75
2022/09/14 00:28:48;;;;;;;3.77;2.80;;;;;;;14.94;60.61;96912.50;4914233;29;20198;-76
2022/09/14 00:31:16;;;;;;;3.23;2.90;;;;;;;14.71;60.66;96912.34;4913894;29;20208;-78
2022/09/14 00:33:48;;;;;;;3.77;3.10;;;;;;;14.62;61.23;96918.97;4912611;29;20186;-77
2022/09/14 00:36:27;;;;;;;3.57;2.73;;;;;;;14.53;61.67;96914.31;4913865;29;20198;-76
2022/09/14 00:38:55;;;;;;;4.80;3.20;;;;;;;14.56;61.58;96916.75;4895598;29;20230;-76
2022/09/14 00:41:26;;;;;;;4.00;3.33;;;;;;;14.68;61.62;96914.19;4913601;29;20222;-77
2022/09/14 00:44:00;;;;;;;3.00;2.70;;;;;;;14.84;60.72;96916.66;4913982;29;20189;-77
2022/09/14 00:46:29;;;;;;;4.07;3.00;;;;;;;14.80;60.49;96914.34;4911642;29;20234;-78
2022/09/14 00:49:00;;;;;;;3.07;2.77;;;;;;;14.91;60.56;96914.47;4913449;29;20754;-78
2022/09/14 00:51:30;;;;;;;4.60;2.90;;;;;;;14.98;60.47;96910.56;4912106;29;20258;-77
2022/09/14 00:53:57;;;;;;;4.47;3.50;;;;;;;15.00;60.69;96904.28;4913486;29;20983;-78
2022/09/14 00:56:24;;;;;;;3.27;2.87;;;;;;;15.23;59.58;96913.19;4912780;29;20646;-79
2022/09/14 00:58:54;;;;;;;5.70;3.67;;;;;;;15.25;59.88;96913.97;4911382;29;20194;-76
2022/09/14 01:01:21;;;;;;;3.50;3.20;;;;;;;15.23;60.13;96907.97;4913288;29;20262;-79
2022/09/14 01:03:48;;;;;;;5.53;3.30;;;;;;;15.18;60.52;96907.47;4911491;29;20221;-76
2022/09/14 01:06:40;;;;;;;5.57;3.47;;;;;;;15.20;60.09;96916.03;4913243;29;20195;-77
2022/09/14 01:09:10;;;;;;;3.83;3.17;;;;;;;14.98;60.72;96906.16;4910245;29;20214;-78
2022/09/14 01:12:03;;;;;;;5.23;3.53;;;;;;;14.82;60.76;96905.47;4912638;29;20313;-78
2022/09/14 01:14:30;;;;;;;6.57;3.80;;;;;;;14.79;60.88;96920.50;4913120;29;20191;-77
2022/09/14 01:17:29;;;;;;;4.00;3.60;;;;;;;14.74;60.81;96923.38;4911553;29;20760;-78
2022/09/14 01:20:40;;;;;;;4.60;4.00;;;;;;;14.59;61.74;96914.78;4905448;29;20244;-77
2022/09/14 01:23:26;;;;;;;4.87;3.43;;;;;;;14.68;61.50;96906.38;4911787;29;20230;-78
2022/09/14 01:26:02;;;;;;;5.23;3.90;;;;;;;14.53;61.64;96914.31;4912375;29;20724;-78
2022/09/14 01:28:55;;;;;;;5.20;3.67;;;;;;;13.65;63.95;96909.38;4912953;29;20201;-78
2022/09/14 01:34:46;;;;;;;6.23;4.13;;;;;;;13.30;65.60;96907.16;4911400;29;20278;-79
2022/09/14 01:37:26;;;;;;;4.33;3.93;;;;;;;13.17;66.11;96898.44;4921210;29;20190;-77
2022/09/14 01:39:59;;;;;;;4.60;4.20;;;;;;;13.21;65.72;96892.94;4911176;29;20808;-77
2022/09/14 01:42:32;;;;;;;6.20;3.60;;;;;;;13.28;66.14;96911.63;4919199;29;20197;-77
2022/09/14 01:45:02;;;;;;;3.77;3.43;;;;;;;13.17;66.32;96888.84;4918059;29;20289;-77
2022/09/14 01:47:37;;;;;;;6.00;3.80;;;;;;;13.32;66.15;96903.56;4918435;29;20577;-78
2022/09/14 01:50:14;;;;;;;3.93;3.50;;;;;;;13.16;66.99;96904.53;4895773;29;20665;-77
2022/09/14 01:52:54;;;;;;;4.13;3.37;;;;;;;12.96;67.09;96897.88;4911571;29;20200;-77
2022/09/14 01:55:30;;;;;;;4.20;3.80;;;;;;;12.82;67.96;96901.25;4911317;29;20530;-75
2022/09/14 01:58:24;;;;;;;4.20;3.67;;;;;;;12.74;68.11;96908.63;4911373;29;20580;-77
2022/09/14 02:01:23;;;;;;;4.33;3.30;;;;;;;12.86;68.06;96907.94;4914052;29;20354;-82
2022/09/14 02:04:08;;;;;;;3.10;2.80;;;;;;;12.90;68.30;96904.25;4914412;29;20610;-78
2022/09/14 02:06:42;;;;;;;4.33;3.80;;;;;;;13.03;67.96;96913.03;4915397;29;20188;-78
2022/09/14 02:09:18;;;;;;;4.13;3.33;;;;;;;12.96;67.82;96913.47;4911115;29;20275;-78
2022/09/14 02:11:50;;;;;;;5.07;3.33;;;;;;;12.94;68.29;96910.13;4914403;29;20290;-78
2022/09/14 02:14:17;;;;;;;4.03;3.37;;;;;;;13.05;67.92;96915.56;4913071;29;20755;-80
2022/09/14 02:16:46;;;;;;;4.00;3.60;;;;;;;13.00;68.12;96910.59;4912037;29;20199;-79
2022/09/14 02:19:14;;;;;;;6.23;3.43;;;;;;;13.03;67.58;96906.97;4881580;29;20222;-77
2022/09/14 02:21:41;;;;;;;4.80;3.13;;;;;;;13.06;67.39;96918.06;4916379;29;20231;-78
2022/09/14 02:24:09;;;;;;;3.70;3.40;;;;;;;13.00;67.41;96917.56;4912157;29;20267;-77
2022/09/14 02:26:38;;;;;;;4.00;3.13;;;;;;;13.08;67.41;96918.00;4910926;29;20190;-76
2022/09/14 02:29:05;;;;;;;3.93;3.53;;;;;;;12.93;67.56;96922.28;4912918;29;20203;-74
2022/09/14 02:31:43;;;;;;;3.77;3.37;;;;;;;12.75;68.18;96941.50;4910792;29;20562;-75
2022/09/14 02:34:27;;;;;;;3.27;3.00;;;;;;;12.56;68.85;96930.47;4911916;29;20197;-75
2022/09/14 02:37:05;;;;;;;4.63;3.47;;;;;;;12.52;69.27;96922.91;4912189;29;20198;-75
2022/09/14 02:39:44;;;;;;;4.07;3.67;;;;;;;12.58;69.19;96923.41;4910661;29;20191;-76
2022/09/14 02:42:33;;;;;;;3.70;3.40;;;;;;;12.65;69.16;96927.34;4911838;29;20230;-76
2022/09/14 02:45:21;;;;;;;4.07;3.10;;;;;;;12.64;69.35;96917.03;4911284;29;20189;-78
2022/09/14 02:48:01;;;;;;;4.60;3.57;;;;;;;12.63;69.16;96918.78;4910104;29;20676;-76
2022/09/14 02:50:50;;;;;;;4.07;3.67;;;;;;;12.66;68.95;96921.22;4913180;29;20462;-78
2022/09/14 02:53:48;;;;;;;4.87;4.30;;;;;;;12.77;68.50;96918.88;4910228;29;20203;-77
2022/09/14 02:56:18;;;;;;;5.63;4.30;;;;;;;12.48;69.10;96917.06;4905423;29;20765;-75
2022/09/14 02:58:45;;;;;;;4.60;3.90;;;;;;;12.54;68.90;96919.31;4911688;29;20219;-77
2022/09/14 03:01:16;;;;;;;5.13;4.07;;;;;;;12.50;69.84;96915.22;4910266;29;20218;-76
2022/09/14 03:03:43;;;;;;;6.40;4.27;;;;;;;12.50;69.54;96915.22;4910390;29;20213;-76
2022/09/14 03:06:10;;;;;;;5.40;3.97;;;;;;;12.50;69.32;96912.63;4910156;29;20305;-77
2022/09/14 03:08:38;;;;;;;4.70;4.07;;;;;;;12.48;69.70;96904.06;4912287;29;20287;-77
2022/09/14 03:11:06;;;;;;;4.50;4.07;;;;;;;12.80;68.75;96923.88;4910042;29;20279;-76
2022/09/14 03:13:34;;;;;;;4.73;3.70;;;;;;;12.95;68.04;96907.44;4910983;29;20206;-77
2022/09/14 03:16:10;;;;;;;4.27;3.80;;;;;;;13.16;67.46;96904.53;4911996;29;20197;-75
2022/09/14 03:18:38;;;;;;;7.43;4.63;;;;;;;13.05;67.18;96920.75;4910810;29;20201;-75
2022/09/14 03:21:08;;;;;;;9.87;5.10;;;;;;;12.85;68.39;96919.28;4914259;29;20732;-75
2022/09/14 03:23:38;;;;;;;6.63;4.70;;;;;;;12.65;68.57;96916.13;4911199;29;20192;-77
2022/09/14 03:26:10;;;;;;;6.60;4.77;;;;;;;12.54;69.11;96913.28;4912814;29;20677;-75
2022/09/14 03:28:38;;;;;;;4.97;4.40;;;;;;;12.35;69.61;96910.84;4915350;29;20758;-76
2022/09/14 03:31:07;;;;;;;6.43;4.93;;;;;;;12.37;69.73;96921.16;4896651;29;20286;-76
2022/09/14 03:33:34;;;;;;;6.80;4.70;;;;;;;12.28;69.78;96925.09;4915165;29;20219;-76
2022/09/14 03:36:13;;;;;;;6.33;5.60;;;;;;;12.11;70.52;96919.97;4913660;29;20203;-76
2022/09/14 03:38:47;;;;;;;8.23;6.10;;;;;;;12.09;70.74;96916.63;4918792;29;20215;-76
2022/09/14 03:41:15;;;;;;;6.90;5.17;;;;;;;12.03;71.25;96919.56;4932828;29;20238;-75
2022/09/14 03:43:44;;;;;;;6.50;4.93;;;;;;;11.75;71.34;96893.38;4932764;29;20279;-76
2022/09/14 03:46:13;;;;;;;6.43;4.77;;;;;;;11.88;71.30;96912.56;4916417;29;20204;-76
2022/09/14 03:48:41;;;;;;;5.43;4.90;;;;;;;11.99;71.07;96915.44;4914861;29;20295;-76
2022/09/14 03:51:09;;;;;;;5.10;4.60;;;;;;;12.06;70.82;96928.00;4933493;29;20735;-77
2022/09/14 03:53:38;;;;;;;5.83;4.37;;;;;;;12.03;70.72;96922.16;4932612;29;20225;-74
2022/09/14 03:56:16;;;;;;;7.30;4.80;;;;;;;11.89;71.05;96924.63;4933346;29;20196;-74
2022/09/14 03:58:45;;;;;;;7.70;4.57;;;;;;;11.72;72.13;96912.56;4932731;29;20195;-76
2022/09/14 04:01:15;;;;;;;4.90;4.40;;;;;;;11.74;72.31;96936.66;4932123;29;20290;-76
2022/09/14 04:03:43;;;;;;;6.00;4.83;;;;;;;11.70;72.53;96942.94;4933204;29;20208;-76
2022/09/14 04:06:13;;;;;;;5.57;4.67;;;;;;;11.69;72.23;96940.38;4915007;29;20207;-76
2022/09/14 04:08:41;;;;;;;7.47;4.57;;;;;;;11.69;72.47;96932.59;4915897;29;20547;-76
2022/09/14 04:11:12;;;;;;;4.93;4.53;;;;;;;11.69;72.15;96933.44;4931298;29;20195;-75
2022/09/14 04:13:41;;;;;;;6.40;4.63;;;;;;;11.67;72.56;96942.22;4932510;29;20681;-75
2022/09/14 04:16:09;;;;;;;6.50;4.77;;;;;;;11.63;72.30;96953.63;4932461;29;20200;-76
2022/09/14 04:18:36;;;;;;;4.97;4.20;;;;;;;11.59;72.72;96942.59;4931833;29;20853;-79
2022/09/14 04:21:07;;;;;;;7.17;4.53;;;;;;;11.67;72.51;96939.63;4916066;29;20593;-78
2022/09/14 04:23:35;;;;;;;4.60;4.20;;;;;;;11.86;71.67;96932.56;4931524;29;20745;-78
2022/09/14 04:26:25;;;;;;;6.93;5.13;;;;;;;12.15;70.73;96932.72;4932836;29;20194;-77
2022/09/14 04:28:55;;;;;;;5.43;4.10;;;;;;;12.21;69.86;96931.53;4931829;29;20203;-76
2022/09/14 04:31:26;;;;;;;5.73;4.63;;;;;;;12.25;70.03;96941.69;4916144;29;20274;-75
2022/09/14 04:33:55;;;;;;;6.73;4.80;;;;;;;12.24;70.51;96942.59;4932749;29;20197;-75
2022/09/14 04:36:27;;;;;;;6.37;4.30;;;;;;;12.29;69.77;96944.94;4931620;29;20209;-75
2022/09/14 04:38:58;;;;;;;6.57;4.43;;;;;;;12.40;69.92;96950.41;4931895;29;20227;-75
2022/09/14 04:41:27;;;;;;;5.03;4.50;;;;;;;12.80;68.80;96962.88;4930851;29;20265;-76
2022/09/14 04:43:55;;;;;;;8.53;4.60;;;;;;;13.09;67.19;96966.44;4932414;29;20200;-75
2022/09/14 04:46:25;;;;;;;8.23;4.47;;;;;;;13.49;65.54;96965.00;4932491;29;20201;-75
2022/09/14 04:48:52;;;;;;;5.07;4.37;;;;;;;13.61;65.07;96954.72;4931227;29;20272;-75
2022/09/14 04:51:22;;;;;;;5.57;4.47;;;;;;;13.91;65.07;96965.06;4932213;29;20197;-76
2022/09/14 04:53:51;;;;;;;5.03;4.30;;;;;;;14.13;63.31;96947.22;4913957;29;20241;-75
2022/09/14 04:56:23;;;;;;;5.47;4.90;;;;;;;14.25;62.78;96962.09;4915115;29;20236;-76
2022/09/14 04:58:56;;;;;;;5.43;4.30;;;;;;;14.41;63.14;96964.59;4913710;29;20201;-76
2022/09/14 05:01:32;;;;;;;6.77;4.43;;;;;;;14.60;62.08;96958.16;4931588;29;20232;-75
2022/09/14 05:04:01;;;;;;;6.20;4.07;;;;;;;14.65;61.94;96958.69;4915043;29;20326;-76
2022/09/14 05:06:31;;;;;;;7.40;4.67;;;;;;;14.74;61.14;96943.41;4930503;29;20205;-74
2022/09/14 05:08:59;;;;;;;5.07;4.57;;;;;;;14.95;61.03;96949.84;4932280;29;20285;-75
2022/09/14 05:11:32;;;;;;;6.27;4.17;;;;;;;15.06;60.16;96944.78;4930829;29;20210;-74
2022/09/14 05:14:00;;;;;;;5.17;3.80;;;;;;;15.30;60.58;96949.25;4931776;29;20788;-74
2022/09/14 05:16:30;;;;;;;15.90;6.00;;;;;;;15.35;59.38;96904.59;4931371;29;20194;-76
2022/09/14 05:19:02;;;;;;;7.30;4.30;;;;;;;15.85;59.30;96950.78;4931731;29;20191;-75
2022/09/14 05:21:31;;;;;;;8.37;4.93;;;;;;;15.99;57.83;96937.66;4931529;29;20242;-75
2022/09/14 05:24:01;;;;;;;5.20;4.43;;;;;;;16.35;57.41;96944.69;4912994;29;20224;-76
2022/09/14 05:26:29;;;;;;;7.03;4.07;;;;;;;15.98;57.28;96942.03;4931832;29;20236;-75
2022/09/14 05:28:59;;;;;;;5.70;4.20;;;;;;;15.93;57.79;96953.75;4930573;29;20196;-76
2022/09/14 05:31:27;;;;;;;5.93;4.40;;;;;;;16.03;58.11;96952.97;4931474;29;20262;-75
2022/09/14 05:33:54;;;;;;;8.00;5.00;;;;;;;16.19;57.77;96950.16;4929744;29;20272;-75
2022/09/14 05:36:22;;;;;;;6.60;4.70;;;;;;;16.27;57.17;96946.06;4928450;29;20664;-75
2022/09/14 05:38:49;;;;;;;8.63;5.47;;;;;;;16.37;57.42;96950.63;4931108;29;20209;-75
2022/09/14 05:41:16;;;;;;;5.30;4.77;;;;;;;16.19;57.19;96935.31;4929425;29;20209;-75
2022/09/14 05:43:43;;;;;;;9.03;4.40;;;;;;;16.45;57.61;96969.22;4930783;29;20194;-75
2022/09/14 05:46:15;;;;;;;4.87;4.37;;;;;;;16.50;57.15;96969.78;4928136;29;20223;-76
2022/09/14 05:48:42;;;;;;;6.57;5.23;;;;;;;16.49;57.31;96968.94;4931017;29;20293;-74
2022/09/14 05:51:15;;;;;;;8.43;4.37;;;;;;;16.04;59.33;96957.28;4929811;29;20288;-76
2022/09/14 05:53:48;;;;;;;6.67;4.33;;;;;;;16.00;60.35;96963.66;4930168;29;20718;-74
2022/09/14 05:56:17;;;;;;;4.47;4.07;;;;;;;16.21;59.33;96984.84;4930966;29;20241;-76
2022/09/14 05:58:45;;;;;;;9.60;4.40;;;;;;;16.68;58.86;96986.78;4929775;29;20290;-74
2022/09/14 06:01:23;;;;;;;5.40;4.30;;;;;;;17.03;57.58;96979.88;4930732;29;20217;-75
2022/09/14 06:04:01;;;;;;;6.97;4.20;;;;;;;17.31;56.67;96978.72;4929493;29;20191;-75
2022/09/14 06:06:30;;;;;;;9.33;4.63;;;;;;;17.43;56.47;96978.66;4928591;29;20280;-75
2022/09/14 06:08:58;;;;;;;6.50;4.97;;;;;;;17.47;56.42;96969.63;4930438;29;20187;-75
2022/09/14 06:11:35;;;;;;;5.80;4.40;;;;;;;17.55;55.71;96964.66;4929424;29;20183;-75
2022/09/14 06:14:02;;;;;;;6.53;4.00;;;;;;;17.82;55.52;96980.94;4929452;29;20195;-75
2022/09/14 06:16:29;;;;;;;5.00;3.80;;;;;;;17.69;55.38;96980.19;4930085;29;20631;-76
2022/09/14 06:18:58;;;;;;;6.70;3.90;;;;;;;17.48;55.87;96975.66;4930205;29;20197;-75
2022/09/14 06:21:33;;;;;;;5.90;3.90;;;;;;;17.80;55.30;96977.56;4929529;29;20225;-75
2022/09/14 06:24:12;;;;;;;8.17;3.90;;;;;;;17.95;54.92;96977.38;4932184;29;20227;-77
2022/09/14 06:26:41;;;;;;;3.80;3.37;;;;;;;18.17;54.27;96980.03;4929694;29;20197;-76
2022/09/14 06:29:10;;;;;;;7.60;5.83;;;;;;;18.14;54.53;96957.50;4929205;29;20653;-76
2022/09/14 06:32:03;;;;;;;9.93;6.23;;;;;;;18.59;54.53;96987.19;4914744;29;20572;-78
2022/09/14 06:34:32;;;;;;;6.60;3.33;;;;;;;18.79;53.38;96978.63;4913796;29;20266;-76
2022/09/14 06:37:13;;;;;;;5.10;3.47;;;;;;;18.89;51.99;96955.09;4927524;29;20227;-76
2022/09/14 06:39:44;;;;;;;4.33;3.40;;;;;;;19.03;52.74;96991.56;4931590;29;20200;-75
2022/09/14 06:42:14;;;;;;;5.93;3.40;;;;;;;19.13;52.41;96990.69;4928679;29;20732;-75
2022/09/14 06:44:41;;;;;;;3.40;3.10;;;;;;;19.04;51.53;96982.75;4930889;29;20197;-76
2022/09/14 06:47:08;;;;;;;6.07;3.67;;;;;;;19.10;52.14;96993.56;4928836;29;20213;-76
2022/09/14 06:49:34;;;;;;;5.27;3.60;;;;;;;19.17;51.79;96994.75;4930404;29;20597;-76
2022/09/14 06:52:01;;;;;;;5.80;4.27;;;;;;;19.48;51.66;96999.22;4929373;29;20245;-75
2022/09/14 06:54:28;;;;;;;6.90;4.40;;;;;;;19.17;51.94;96994.75;4927721;29;20282;-76
2022/09/14 06:56:55;;;;;;;5.07;4.17;;;;;;;19.07;51.41;96999.06;4930033;29;20244;-75
2022/09/14 06:59:22;;;;;;;3.23;2.93;;;;;;;18.94;52.13;96997.56;4928320;29;20200;-75
2022/09/14 07:01:50;;;;;;;6.00;3.43;;;;;;;18.82;52.16;97004.59;4931945;29;20225;-76
2022/09/14 07:04:18;;;;;;;4.43;3.33;;;;;;;18.83;52.75;96995.78;4915254;29;20194;-76
2022/09/14 07:06:47;;;;;;;4.37;3.30;;;;;;;18.93;53.16;96993.25;4933725;29;20193;-75
2022/09/14 07:09:15;;;;;;;6.70;3.37;;;;;;;19.25;51.78;97000.22;4933751;29;20225;-77
2022/09/14 07:11:43;;;;;;;4.93;3.70;;;;;;;19.49;51.07;97000.88;4936099;29;20270;-75
2022/09/14 07:14:11;;;;;;;5.67;3.77;;;;;;;19.51;50.54;96989.41;4918980;29;20212;-76
2022/09/14 07:16:39;;;;;;;4.47;3.10;;;;;;;19.68;49.99;97000.19;4934721;29;20978;-76
2022/09/14 07:19:10;;;;;;;4.57;3.10;;;;;;;19.56;50.24;96997.75;4934837;29;20200;-76
2022/09/14 07:21:37;;;;;;;3.87;2.97;;;;;;;19.55;50.51;96983.78;4932782;29;20281;-75
2022/09/14 07:24:04;;;;;;;4.67;3.50;;;;;;;19.84;50.07;96994.50;4933517;29;20530;-75
2022/09/14 07:26:38;;;;;;;4.20;2.77;;;;;;;20.07;48.61;96990.78;4933005;29;20197;-76
2022/09/14 07:29:11;;;;;;;6.00;2.97;;;;;;;20.39;47.46;96990.69;4932717;29;20284;-75
2022/09/14 07:31:40;;;;;;;4.97;2.60;;;;;;;20.66;47.13;96989.16;4931920;29;20738;-76
2022/09/14 07:34:07;;;;;;;4.43;2.60;;;;;;;20.69;46.04;96973.09;4932052;29;20241;-75
2022/09/14 07:36:35;;;;;;;3.60;2.60;;;;;;;20.77;45.67;96980.34;4932884;29;20197;-75
2022/09/14 07:39:08;;;;;;;4.37;2.53;;;;;;;20.99;45.20;96980.94;4930291;29;20222;-75
2022/09/14 07:41:36;;;;;;;4.23;2.83;;;;;;;21.25;44.80;96986.56;4932650;29;20307;-76
2022/09/14 07:44:06;;;;;;;3.47;2.60;;;;;;;21.27;43.60;96976.72;4932745;29;20280;-75
2022/09/14 07:46:39;;;;;;;4.63;3.03;;;;;;;21.41;43.56;96980.75;4931547;29;20599;-75
2022/09/14 07:49:07;;;;;;;2.67;2.47;;;;;;;21.41;43.02;96975.50;4932972;29;20672;-76
2022/09/14 07:51:35;;;;;;;2.50;2.23;;;;;;;21.37;42.89;96982.00;4931158;29;20675;-76
2022/09/14 07:54:04;;;;;;;5.03;3.50;;;;;;;21.33;43.04;96981.44;4932889;29;20259;-75
2022/09/14 07:56:33;;;;;;;2.87;2.60;;;;;;;21.43;42.95;96984.09;4931539;29;20670;-76
2022/09/14 07:59:00;;;;;;;4.50;2.87;;;;;;;21.67;42.39;96971.31;4932630;29;20343;-75
2022/09/14 08:01:48;;;;;;;2.50;2.30;;;;;;;21.72;42.31;96979.66;4932759;29;20206;-75
2022/09/14 08:04:16;;;;;;;3.23;2.80;;;;;;;21.76;42.49;96971.31;4930724;29;20192;-75
2022/09/14 08:06:43;;;;;;;3.37;2.70;;;;;;;21.92;41.81;96976.03;4931319;29;20606;-76
2022/09/14 08:09:10;;;;;;;3.77;2.90;;;;;;;21.99;41.71;96971.84;4930852;29;20227;-75
2022/09/14 08:11:38;;;;;;;3.30;2.97;;;;;;;22.19;41.36;96984.06;4932309;29;20189;-76
2022/09/14 08:14:12;;;;;;;4.97;2.87;;;;;;;22.42;40.87;96974.78;4931222;29;20295;-77
2022/09/14 08:16:44;;;;;;;10.87;4.30;;;;;;;22.36;41.43;96967.44;4931947;29;20199;-76
2022/09/14 08:19:15;;;;;;;6.83;3.17;;;;;;;22.55;41.61;96971.81;4932515;29;20204;-76
2022/09/14 08:21:43;;;;;;;3.03;2.40;;;;;;;22.45;41.13;96960.47;4930669;29;20199;-76
2022/09/14 08:24:16;;;;;;;6.47;4.60;;;;;;;22.60;40.35;96965.19;4930992;29;20666;-76
2022/09/14 08:26:44;;;;;;;4.33;3.57;;;;;;;22.43;40.25;96952.72;4929641;29;20189;-75
2022/09/14 08:29:13;;;;;;;4.67;2.63;;;;;;;22.72;39.92;96973.72;4932434;29;20622;-77
2022/09/14 08:31:41;;;;;;;2.87;2.20;;;;;;;22.64;39.05;96978.91;4931521;29;20199;-76
2022/09/14 08:34:08;;;;;;;4.90;2.50;;;;;;;22.55;38.52;96956.00;4930981;29;20194;-76
2022/09/14 08:36:39;;;;;;;3.33;3.03;;;;;;;22.69;38.71;96966.09;4932035;29;20219;-75
2022/09/14 08:39:10;;;;;;;2.50;2.30;;;;;;;22.69;37.77;96965.28;4932506;29;20602;-77
2022/09/14 08:41:52;;;;;;;5.30;2.83;;;;;;;22.83;37.96;96962.16;4933125;29;20277;-77
2022/09/14 08:44:27;;;;;;;6.03;2.60;;;;;;;22.92;38.05;96961.25;4931638;29;20229;-77
2022/09/14 08:47:02;;;;;;;4.13;2.40;;;;;;;23.03;38.51;96963.69;4931452;29;20193;-78
2022/09/14 08:50:13;;;;;;;3.23;2.93;;;;;;;23.14;37.97;96929.16;4931598;29;20247;-77
2022/09/14 08:52:42;;;;;;;4.13;2.27;;;;;;;23.40;38.05;96956.50;4929196;29;20213;-76
2022/09/14 08:55:15;;;;;;;5.50;3.40;;;;;;;23.50;37.62;96946.69;4931229;29;20260;-77
2022/09/14 08:57:56;;;;;;;2.60;2.20;;;;;;;23.53;37.61;96953.50;4930879;29;20197;-76
2022/09/14 09:00:34;;;;;;;4.53;2.37;;;;;;;23.53;37.76;96945.56;4929597;29;20286;-75
2022/09/14 09:03:08;;;;;;;4.63;2.40;;;;;;;23.57;37.35;96945.09;4931695;29;20265;-76
2022/09/14 09:05:40;;;;;;;3.00;2.70;;;;;;;23.74;37.01;96938.94;4929955;29;20233;-76
2022/09/14 09:08:20;;;;;;;5.47;2.70;;;;;;;23.77;36.96;96938.66;4931673;29;20199;-76
2022/09/14 09:10:51;;;;;;;3.67;3.17;;;;;;;23.72;36.48;96927.69;4930573;29;20210;-76
2022/09/14 09:13:27;;;;;;;3.77;2.77;;;;;;;23.84;36.10;96934.41;4928764;29;20251;-76
2022/09/14 09:15:59;;;;;;;2.70;2.33;;;;;;;23.61;36.32;96922.66;4932003;29;20232;-75
2022/09/14 09:18:35;;;;;;;3.20;2.10;;;;;;;23.78;36.40;96931.56;4929489;29;20775;-76
2022/09/14 09:21:26;;;;;;;3.73;2.83;;;;;;;23.90;36.55;96936.44;4930271;29;20191;-76
2022/09/14 09:24:20;;;;;;;2.97;2.67;;;;;;;23.88;35.80;96940.22;4930389;29;20654;-75
2022/09/14 09:26:47;;;;;;;4.87;3.63;;;;;;;23.67;35.76;96926.50;4929349;29;20228;-77
2022/09/14 09:29:14;;;;;;;4.60;2.80;;;;;;;23.72;36.61;96927.69;4930654;29;20210;-76
2022/09/14 09:32:02;;;;;;;4.47;2.23;;;;;;;23.91;36.59;96919.56;4930925;29;20199;-77
2022/09/14 09:34:57;;;;;;;4.27;2.27;;;;;;;23.96;36.73;96922.59;4890893;29;20228;-76
2022/09/14 09:37:58;;;;;;;6.63;3.63;;;;;;;24.03;36.94;96917.50;4898883;29;20203;-77
2022/09/14 09:40:39;;;;;;;2.67;2.20;;;;;;;24.23;35.38;96913.69;4928408;29;20198;-75
2022/09/14 09:43:19;;;;;;;2.33;2.03;;;;;;;24.23;34.79;96921.63;4913407;29;20802;-75
2022/09/14 09:46:11;;;;;;;3.27;2.40;;;;;;;24.31;34.95;96916.38;4929761;29;20186;-76
2022/09/14 09:48:41;;;;;;;4.60;3.20;;;;;;;24.42;34.81;96902.84;4927539;29;20213;-75
2022/09/14 09:51:25;;;;;;;4.03;2.17;;;;;;;24.17;34.25;96843.66;4930117;29;20318;-76
2022/09/14 09:54:01;;;;;;;2.87;2.00;;;;;;;24.50;34.43;96907.38;4930456;29;20211;-75
2022/09/14 09:56:32;;;;;;;3.70;2.30;;;;;;;24.44;34.89;96905.34;4930136;29;20656;-77
2022/09/14 09:58:59;;;;;;;3.03;2.73;;;;;;;24.65;34.22;96897.81;4930674;29;20251;-75
2022/09/14 10:01:29;;;;;;;10.10;3.03;;;;;;;24.88;34.20;96904.22;4928981;29;20269;-76
2022/09/14 10:04:19;;;;;;;13.77;7.60;;;;;;;24.98;33.12;96904.91;4931313;29;20255;-76
2022/09/14 10:06:50;;;;;;;5.27;3.17;;;;;;;25.26;32.50;96903.63;4929179;29;20205;-75
2022/09/14 10:09:20;;;;;;;4.00;1.80;;;;;;;25.30;32.75;96904.13;4929671;29;20213;-76
2022/09/14 10:11:56;;;;;;;2.83;2.60;;;;;;;25.21;32.43;96902.44;4929603;29;20325;-76
2022/09/14 10:14:32;;;;;;;4.00;2.77;;;;;;;25.23;32.72;96903.13;4928636;29;20284;-76
2022/09/14 10:17:20;;;;;;;3.57;2.57;;;;;;;25.40;32.18;96899.50;4932699;29;20300;-77
2022/09/14 10:19:57;;;;;;;2.60;1.80;;;;;;;25.34;31.93;96887.72;4928779;29;20224;-76
2022/09/14 10:22:30;;;;;;;4.03;3.30;;;;;;;25.40;32.39;96891.53;4929509;29;20228;-75
2022/09/14 10:25:23;;;;;;;2.03;1.60;;;;;;;25.02;32.46;96904.41;4929933;29;20708;-78
2022/09/14 10:27:53;;;;;;;2.77;1.73;;;;;;;24.90;32.54;96896.94;4926668;29;20196;-75
2022/09/14 10:30:28;;;;;;;2.47;1.90;;;;;;;24.97;32.46;96901.44;4929932;29;20219;-75
2022/09/14 10:33:02;;;;;;;3.27;1.90;;;;;;;25.23;32.04;96893.34;4928888;29;20270;-76
2022/09/14 10:35:46;;;;;;;3.00;1.63;;;;;;;25.21;31.12;96890.03;4929124;29;20223;-75
2022/09/14 10:38:30;;;;;;;3.43;2.00;;;;;;;25.01;32.00;96899.28;4930315;29;20200;-76
2022/09/14 10:41:00;;;;;;;3.80;1.40;;;;;;;25.11;30.30;96894.66;4926353;29;20256;-76
2022/09/14 10:43:57;;;;;;;2.33;1.93;;;;;;;25.21;30.21;96889.19;4930014;29;20322;-77
2022/09/14 10:46:29;;;;;;;2.43;1.50;;;;;;;25.39;31.36;96885.41;4929564;29;20184;-77
2022/09/14 10:49:41;;;;;;;6.60;1.87;;;;;;;25.67;30.93;96893.91;4928824;29;20212;-75
2022/09/14 10:52:28;;;;;;;4.70;2.10;;;;;;;25.97;29.54;96892.34;4917486;29;20208;-76
2022/09/14 10:55:41;;;;;;;1.87;1.70;;;;;;;25.87;29.52;96884.56;4929710;29;20288;-76
2022/09/14 10:58:26;;;;;;;4.17;1.90;;;;;;;25.83;29.83;96881.44;4927283;29;20776;-76
2022/09/14 11:00:56;;;;;;;3.97;2.03;;;;;;;26.05;30.37;96881.75;4928360;29;20201;-76
2022/09/14 11:03:32;;;;;;;2.20;2.00;;;;;;;26.00;30.13;96878.75;4928564;29;20336;-76
2022/09/14 11:06:42;;;;;;;2.30;2.00;;;;;;;25.93;29.91;96872.44;4929061;29;20208;-77
2022/09/14 11:09:48;;;;;;;6.57;3.80;;;;;;;25.95;30.17;96867.81;4932858;29;20227;-76
2022/09/14 11:12:37;;;;;;;2.70;2.03;;;;;;;26.08;30.06;96870.81;4936193;29;20210;-76
2022/09/14 11:15:17;;;;;;;2.07;1.87;;;;;;;26.11;30.19;96863.31;4928926;29;20281;-76
2022/09/14 11:18:03;;;;;;;2.30;2.10;;;;;;;25.81;29.82;96851.59;4929210;29;20201;-75
2022/09/14 11:20:48;;;;;;;3.10;2.03;;;;;;;25.84;29.46;96851.25;4929226;29;20751;-76
2022/09/14 11:23:43;;;;;;;5.70;2.47;;;;;;;26.06;29.99;96848.88;4929029;29;20721;-76
2022/09/14 11:26:59;;;;;;;2.10;1.80;;;;;;;26.34;28.61;96847.47;4931766;29;20240;-76
2022/09/14 11:29:46;;;;;;;1.30;1.20;;;;;;;26.31;27.99;96845.19;4891581;29;20209;-76
2022/09/14 11:32:22;;;;;;;2.23;1.20;;;;;;;26.39;27.46;96851.28;4930871;29;20194;-77
2022/09/14 11:35:13;;;;;;;2.40;1.60;;;;;;;26.60;27.71;96838.22;4930002;29;20686;-76
2022/09/14 11:39:30;;;;;;;2.03;1.60;;;;;;;26.79;27.64;96836.97;4932078;29;20690;-79
2022/09/14 11:42:35;;;;;;;3.50;1.33;;;;;;;26.77;27.63;96828.34;4933311;29;20668;-77
2022/09/14 11:45:29;;;;;;;2.70;1.80;;;;;;;26.84;26.57;96824.00;4921010;29;20667;-75
2022/09/14 11:48:09;;;;;;;2.77;1.73;;;;;;;26.80;26.48;96814.72;4930715;29;20276;-76
2022/09/14 11:51:21;;;;;;;1.30;1.20;;;;;;;26.74;26.21;96810.13;4931931;29;20630;-77
2022/09/14 11:54:02;;;;;;;2.03;1.60;;;;;;;26.88;26.05;96814.69;4931706;29;20205;-76
2022/09/14 11:56:31;;;;;;;2.10;1.40;;;;;;;26.74;25.75;96796.84;4933102;29;20225;-75
2022/09/14 11:59:06;;;;;;;5.40;1.53;;;;;;;26.73;25.85;96797.81;4931300;29;20221;-76
2022/09/14 12:01:36;;;;;;;2.33;1.30;;;;;;;26.73;25.93;96795.16;4932998;29;20212;-77
2022/09/14 12:04:10;;;;;;;2.50;1.93;;;;;;;26.88;26.29;96792.56;4932629;29;20279;-75
2022/09/14 12:06:44;;;;;;;2.87;2.20;;;;;;;26.90;26.37;96791.41;4931906;29;20208;-76
2022/09/14 12:09:20;;;;;;;3.97;2.50;;;;;;;27.05;26.42;96788.81;4932306;29;20639;-77
2022/09/14 12:11:57;;;;;;;2.03;1.70;;;;;;;27.20;26.38;96785.16;4931843;29;20221;-77
2022/09/14 12:14:26;;;;;;;3.63;1.90;;;;;;;27.09;26.69;96792.75;4932841;29;20221;-76